createdAt,value
2018-09-12T00:00:05.728Z,20.54
2018-09-12T00:00:36.863Z,20.54
2018-09-12T00:01:08.091Z,20.58
2018-09-12T00:01:39.288Z,20.62
2018-09-12T00:02:10.383Z,20.62
2018-09-12T00:02:41.597Z,20.63
2018-09-12T00:03:12.769Z,20.64
2018-09-12T00:03:43.914Z,20.63
2018-09-12T00:04:15.047Z,20.60
2018-09-12T00:04:46.191Z,20.58
2018-09-12T00:05:17.294Z,20.59
2018-09-12T00:05:48.408Z,20.58
2018-09-12T00:06:19.537Z,20.56
2018-09-12T00:06:50.706Z,20.54
2018-09-12T00:07:21.832Z,20.53
2018-09-12T00:07:52.961Z,20.53
2018-09-12T00:08:24.084Z,20.50
2018-09-12T00:08:55.196Z,20.49
2018-09-12T00:09:26.446Z,20.47
2018-09-12T00:09:57.592Z,20.47
2018-09-12T00:10:28.772Z,20.46
2018-09-12T00:10:59.952Z,20.47
2018-09-12T00:11:31.116Z,20.46
2018-09-12T00:12:02.296Z,20.48
2018-09-12T00:12:33.388Z,20.49
2018-09-12T00:13:04.514Z,20.50
2018-09-12T00:13:35.650Z,20.50
2018-09-12T00:14:06.768Z,20.49
2018-09-12T00:14:37.876Z,20.49
2018-09-12T00:15:08.992Z,20.49
2018-09-12T00:15:40.176Z,20.52
2018-09-12T00:16:11.304Z,20.56
2018-09-12T00:16:42.481Z,20.57
2018-09-12T00:17:13.653Z,20.58
2018-09-12T00:17:44.763Z,20.57
2018-09-12T00:18:15.894Z,20.59
2018-09-12T00:18:47.024Z,20.56
2018-09-12T00:19:18.168Z,20.56
2018-09-12T00:19:49.310Z,20.54
2018-09-12T00:20:20.437Z,20.52
2018-09-12T00:20:51.566Z,20.51
2018-09-12T00:21:22.744Z,20.50
2018-09-12T00:21:53.856Z,20.50
2018-09-12T00:22:25.008Z,20.48
2018-09-12T00:22:56.114Z,20.50
2018-09-12T00:23:27.242Z,20.48
2018-09-12T00:23:58.466Z,20.47
2018-09-12T00:24:29.572Z,20.45
2018-09-12T00:25:00.697Z,20.44
2018-09-12T00:25:31.840Z,20.43
2018-09-12T00:26:03.066Z,20.44
2018-09-12T00:26:34.189Z,20.41
2018-09-12T00:27:05.343Z,20.40
2018-09-12T00:27:36.573Z,20.41
2018-09-12T00:28:07.703Z,20.44
2018-09-12T00:28:38.909Z,20.44
2018-09-12T00:29:10.069Z,20.45
2018-09-12T00:29:41.187Z,20.43
2018-09-12T00:30:12.320Z,20.42
2018-09-12T00:30:43.471Z,20.41
2018-09-12T00:31:14.617Z,20.40
2018-09-12T00:31:45.738Z,20.40
2018-09-12T00:32:16.877Z,20.42
2018-09-12T00:32:47.995Z,20.45
2018-09-12T00:33:19.218Z,20.43
2018-09-12T00:33:50.343Z,20.45
2018-09-12T00:34:21.439Z,20.47
2018-09-12T00:34:52.604Z,20.46
2018-09-12T00:35:23.715Z,20.44
2018-09-12T00:35:54.865Z,20.42
2018-09-12T00:36:26.066Z,20.40
2018-09-12T00:36:57.246Z,20.38
2018-09-12T00:37:28.380Z,20.38
2018-09-12T00:37:59.502Z,20.36
2018-09-12T00:38:30.666Z,20.37
2018-09-12T00:39:01.825Z,20.36
2018-09-12T00:39:32.967Z,20.34
2018-09-12T00:40:04.088Z,20.34
2018-09-12T00:40:35.188Z,20.36
2018-09-12T00:41:06.303Z,20.36
2018-09-12T00:41:37.462Z,20.36
2018-09-12T00:42:08.584Z,20.36
2018-09-12T00:42:39.740Z,20.34
2018-09-12T00:43:10.920Z,20.20
2018-09-12T00:43:42.105Z,20.35
2018-09-12T00:44:13.254Z,20.37
2018-09-12T00:44:44.369Z,20.39
2018-09-12T00:45:15.481Z,20.40
2018-09-12T00:45:46.615Z,20.41
2018-09-12T00:46:17.841Z,20.42
2018-09-12T00:46:49.035Z,20.43
2018-09-12T00:47:20.144Z,20.45
2018-09-12T00:47:51.251Z,20.48
2018-09-12T00:48:22.373Z,20.49
2018-09-12T00:48:53.521Z,20.50
2018-09-12T00:49:24.640Z,20.52
2018-09-12T00:49:55.798Z,20.52
2018-09-12T00:50:26.911Z,20.53
2018-09-12T00:50:58.086Z,20.54
2018-09-12T00:51:29.225Z,20.52
2018-09-12T00:52:00.419Z,20.51
2018-09-12T00:52:31.576Z,20.50
2018-09-12T00:53:02.738Z,20.49
2018-09-12T00:53:33.863Z,20.48
2018-09-12T00:54:04.984Z,20.46
2018-09-12T00:54:36.138Z,20.44
2018-09-12T00:55:07.307Z,20.43
2018-09-12T00:55:38.473Z,20.44
2018-09-12T00:56:09.586Z,20.44
2018-09-12T00:56:40.748Z,20.45
2018-09-12T00:57:11.891Z,20.45
2018-09-12T00:57:43.096Z,20.45
2018-09-12T00:58:14.325Z,20.43
2018-09-12T00:58:45.604Z,20.43
2018-09-12T00:59:16.755Z,20.43
2018-09-12T00:59:47.906Z,20.41
2018-09-12T01:00:19.033Z,20.43
2018-09-12T01:00:50.174Z,20.45
2018-09-12T01:01:21.307Z,20.48
2018-09-12T01:01:52.497Z,20.51
2018-09-12T01:02:23.622Z,20.52
2018-09-12T01:02:54.808Z,20.54
2018-09-12T01:03:25.958Z,20.56
2018-09-12T01:03:57.144Z,20.55
2018-09-12T01:04:28.297Z,20.56
2018-09-12T01:04:59.438Z,20.59
2018-09-12T01:05:30.570Z,20.60
2018-09-12T01:06:01.706Z,20.60
2018-09-12T01:06:32.826Z,20.61
2018-09-12T01:07:04.004Z,20.59
2018-09-12T01:07:35.173Z,20.58
2018-09-12T01:08:06.345Z,20.55
2018-09-12T01:08:37.460Z,20.53
2018-09-12T01:09:08.633Z,20.52
2018-09-12T01:09:39.878Z,20.51
2018-09-12T01:10:11.009Z,20.49
2018-09-12T01:10:42.210Z,20.47
2018-09-12T01:11:13.322Z,20.46
2018-09-12T01:11:44.443Z,20.46
2018-09-12T01:12:15.553Z,20.43
2018-09-12T01:12:46.680Z,20.42
2018-09-12T01:13:17.788Z,20.42
2018-09-12T01:13:48.884Z,20.44
2018-09-12T01:14:20.050Z,20.44
2018-09-12T01:14:51.203Z,20.45
2018-09-12T01:15:22.310Z,20.46
2018-09-12T01:15:53.458Z,20.46
2018-09-12T01:16:24.581Z,20.46
2018-09-12T01:16:55.708Z,20.46
2018-09-12T01:17:26.806Z,20.45
2018-09-12T01:17:57.948Z,20.46
2018-09-12T01:18:29.075Z,20.48
2018-09-12T01:19:00.238Z,20.49
2018-09-12T01:19:31.383Z,20.50
2018-09-12T01:20:02.593Z,20.50
2018-09-12T01:20:33.734Z,20.53
2018-09-12T01:21:04.887Z,20.53
2018-09-12T01:21:35.991Z,20.53
2018-09-12T01:22:07.116Z,20.53
2018-09-12T01:22:38.281Z,20.52
2018-09-12T01:23:09.419Z,20.53
2018-09-12T01:23:40.612Z,20.50
2018-09-12T01:24:11.725Z,20.49
2018-09-12T01:24:42.847Z,20.49
2018-09-12T01:25:14.001Z,20.48
2018-09-12T01:25:45.101Z,20.47
2018-09-12T01:26:16.297Z,20.44
2018-09-12T01:26:47.468Z,20.38
2018-09-12T01:27:18.624Z,20.40
2018-09-12T01:27:49.799Z,20.38
2018-09-12T01:28:20.952Z,20.37
2018-09-12T01:28:52.096Z,20.38
2018-09-12T01:29:23.243Z,20.37
2018-09-12T01:29:54.354Z,20.34
2018-09-12T01:30:25.494Z,20.33
2018-09-12T01:30:56.639Z,20.33
2018-09-12T01:31:27.772Z,20.34
2018-09-12T01:31:58.945Z,20.32
2018-09-12T01:32:30.148Z,20.31
2018-09-12T01:33:01.325Z,20.33
2018-09-12T01:33:32.508Z,20.33
2018-09-12T01:34:03.692Z,20.35
2018-09-12T01:34:34.808Z,20.37
2018-09-12T01:35:05.922Z,20.38
2018-09-12T01:35:37.036Z,20.40
2018-09-12T01:36:08.208Z,20.42
2018-09-12T01:36:39.316Z,20.45
2018-09-12T01:37:10.490Z,20.44
2018-09-12T01:37:41.644Z,20.44
2018-09-12T01:38:12.856Z,20.45
2018-09-12T01:38:44.009Z,20.48
2018-09-12T01:39:15.249Z,20.47
2018-09-12T01:39:46.399Z,20.48
2018-09-12T01:40:17.569Z,20.49
2018-09-12T01:40:48.695Z,20.47
2018-09-12T01:41:19.974Z,20.46
2018-09-12T01:41:51.079Z,20.47
2018-09-12T01:42:22.284Z,20.46
2018-09-12T01:42:53.453Z,20.46
2018-09-12T01:43:24.599Z,20.46
2018-09-12T01:43:55.780Z,20.42
2018-09-12T01:44:26.907Z,20.40
2018-09-12T01:44:58.011Z,20.37
2018-09-12T01:45:29.119Z,20.38
2018-09-12T01:46:00.243Z,20.40
2018-09-12T01:46:31.400Z,20.40
2018-09-12T01:47:02.558Z,20.42
2018-09-12T01:47:33.668Z,20.42
2018-09-12T01:48:04.776Z,20.42
2018-09-12T01:48:35.996Z,20.42
2018-09-12T01:49:07.160Z,20.43
2018-09-12T01:49:38.284Z,20.44
2018-09-12T01:50:09.388Z,20.44
2018-09-12T01:50:40.549Z,20.45
2018-09-12T01:51:11.668Z,20.47
2018-09-12T01:51:42.826Z,20.47
2018-09-12T01:52:14.002Z,20.46
2018-09-12T01:52:45.180Z,20.49
2018-09-12T01:53:16.288Z,20.52
2018-09-12T01:53:47.411Z,20.53
2018-09-12T01:54:18.590Z,20.51
2018-09-12T01:54:49.744Z,20.51
2018-09-12T01:55:20.927Z,20.49
2018-09-12T01:55:52.076Z,20.48
2018-09-12T01:56:23.194Z,20.45
2018-09-12T01:56:54.388Z,20.45
2018-09-12T01:57:25.532Z,20.43
2018-09-12T01:57:56.705Z,20.41
2018-09-12T01:58:27.895Z,20.41
2018-09-12T01:58:59.010Z,20.40
2018-09-12T01:59:30.198Z,20.37
2018-09-12T02:00:01.326Z,20.35
2018-09-12T02:00:32.495Z,20.34
2018-09-12T02:01:03.603Z,20.29
2018-09-12T02:01:34.730Z,20.27
2018-09-12T02:02:05.825Z,20.24
2018-09-12T02:02:36.931Z,20.24
2018-09-12T02:03:08.095Z,20.26
2018-09-12T02:03:39.198Z,20.26
2018-09-12T02:04:10.316Z,20.28
2018-09-12T02:04:41.441Z,20.31
2018-09-12T02:05:12.574Z,20.30
2018-09-12T02:05:43.689Z,20.29
2018-09-12T02:06:14.804Z,20.30
2018-09-12T02:06:45.938Z,20.29
2018-09-12T02:07:17.119Z,20.27
2018-09-12T02:07:48.229Z,20.28
2018-09-12T02:08:19.458Z,20.31
2018-09-12T02:08:50.642Z,20.34
2018-09-12T02:09:21.834Z,20.35
2018-09-12T02:09:52.948Z,20.35
2018-09-12T02:10:24.096Z,20.36
2018-09-12T02:10:55.284Z,20.35
2018-09-12T02:11:26.387Z,20.35
2018-09-12T02:11:57.491Z,20.33
2018-09-12T02:12:28.587Z,20.32
2018-09-12T02:12:59.705Z,20.31
2018-09-12T02:13:30.916Z,20.31
2018-09-12T02:14:02.027Z,20.25
2018-09-12T02:14:33.125Z,20.26
2018-09-12T02:15:04.247Z,20.24
2018-09-12T02:15:35.376Z,20.20
2018-09-12T02:16:06.519Z,20.15
2018-09-12T02:16:37.639Z,20.15
2018-09-12T02:17:08.840Z,20.13
2018-09-12T02:17:40.006Z,20.11
2018-09-12T02:18:11.111Z,20.07
2018-09-12T02:18:42.233Z,20.03
2018-09-12T02:19:13.345Z,20.03
2018-09-12T02:19:44.507Z,19.97
2018-09-12T02:20:15.627Z,19.98
2018-09-12T02:20:46.738Z,19.98
2018-09-12T02:21:17.862Z,19.98
2018-09-12T02:21:49.046Z,19.94
2018-09-12T02:22:20.216Z,19.93
2018-09-12T02:22:51.346Z,19.91
2018-09-12T02:23:22.509Z,19.88
2018-09-12T02:23:53.666Z,19.90
2018-09-12T02:24:24.948Z,19.90
2018-09-12T02:24:56.078Z,19.87
2018-09-12T02:25:27.177Z,19.83
2018-09-12T02:25:58.278Z,19.82
2018-09-12T02:26:29.472Z,19.85
2018-09-12T02:27:00.591Z,19.85
2018-09-12T02:27:31.718Z,19.82
2018-09-12T02:28:02.851Z,19.81
2018-09-12T02:28:33.968Z,19.83
2018-09-12T02:29:05.148Z,19.79
2018-09-12T02:29:36.331Z,19.74
2018-09-12T02:30:07.448Z,19.70
2018-09-12T02:30:38.688Z,19.68
2018-09-12T02:31:09.931Z,19.65
2018-09-12T02:31:41.048Z,19.64
2018-09-12T02:32:12.163Z,19.60
2018-09-12T02:32:43.288Z,19.56
2018-09-12T02:33:14.399Z,19.53
2018-09-12T02:33:45.561Z,19.47
2018-09-12T02:34:16.676Z,19.43
2018-09-12T02:34:47.819Z,19.40
2018-09-12T02:35:18.932Z,19.37
2018-09-12T02:35:50.105Z,19.34
2018-09-12T02:36:21.332Z,19.31
2018-09-12T02:36:52.482Z,19.26
2018-09-12T02:37:23.600Z,19.21
2018-09-12T02:37:54.720Z,19.18
2018-09-12T02:38:25.903Z,19.16
2018-09-12T02:38:57.123Z,19.13
2018-09-12T02:39:28.280Z,19.13
2018-09-12T02:39:59.433Z,19.14
2018-09-12T02:40:30.623Z,19.14
2018-09-12T02:41:01.794Z,19.14
2018-09-12T02:41:32.923Z,19.11
2018-09-12T02:42:04.085Z,19.09
2018-09-12T02:42:35.206Z,19.08
2018-09-12T02:43:06.384Z,19.09
2018-09-12T02:43:37.504Z,19.10
2018-09-12T02:44:08.668Z,19.09
2018-09-12T02:44:39.808Z,19.09
2018-09-12T02:45:11.024Z,19.11
2018-09-12T02:45:42.149Z,19.11
2018-09-12T02:46:13.282Z,19.08
2018-09-12T02:46:44.518Z,19.05
2018-09-12T02:47:15.685Z,19.03
2018-09-12T02:47:46.864Z,19.00
2018-09-12T02:48:18.039Z,18.98
2018-09-12T02:48:49.150Z,18.94
2018-09-12T02:49:20.360Z,18.90
2018-09-12T02:49:51.590Z,18.91
2018-09-12T02:50:22.694Z,18.89
2018-09-12T02:50:53.806Z,18.87
2018-09-12T02:51:24.958Z,18.85
2018-09-12T02:51:56.148Z,18.82
2018-09-12T02:52:27.290Z,18.81
2018-09-12T02:52:58.439Z,18.80
2018-09-12T02:53:29.613Z,18.80
2018-09-12T02:54:00.736Z,18.78
2018-09-12T02:54:31.856Z,18.76
2018-09-12T02:55:03.062Z,18.78
2018-09-12T02:55:34.236Z,18.80
2018-09-12T02:56:05.367Z,18.84
2018-09-12T02:56:36.509Z,18.87
2018-09-12T02:57:07.618Z,18.92
2018-09-12T02:57:38.753Z,18.92
2018-09-12T02:58:09.866Z,18.93
2018-09-12T02:58:41.061Z,18.93
2018-09-12T02:59:12.236Z,18.93
2018-09-12T02:59:43.432Z,18.92
2018-09-12T03:00:14.550Z,18.91
2018-09-12T03:00:45.727Z,18.93
2018-09-12T03:01:16.922Z,18.93
2018-09-12T03:01:48.040Z,18.92
2018-09-12T03:02:19.255Z,18.92
2018-09-12T03:02:50.386Z,18.89
2018-09-12T03:03:21.509Z,18.86
2018-09-12T03:03:52.724Z,18.85
2018-09-12T03:04:23.915Z,18.84
2018-09-12T03:04:55.045Z,18.85
2018-09-12T03:05:26.160Z,18.82
2018-09-12T03:05:57.320Z,18.83
2018-09-12T03:06:28.475Z,18.81
2018-09-12T03:06:59.602Z,18.79
2018-09-12T03:07:30.697Z,18.80
2018-09-12T03:08:01.856Z,18.80
2018-09-12T03:08:32.984Z,18.77
2018-09-12T03:09:04.145Z,18.77
2018-09-12T03:09:35.317Z,18.76
2018-09-12T03:10:06.444Z,18.77
2018-09-12T03:10:37.550Z,18.76
2018-09-12T03:11:08.719Z,18.76
2018-09-12T03:11:39.890Z,18.76
2018-09-12T03:12:11.087Z,18.75
2018-09-12T03:12:42.195Z,18.76
2018-09-12T03:13:13.331Z,18.79
2018-09-12T03:13:44.490Z,18.82
2018-09-12T03:14:15.652Z,18.84
2018-09-12T03:14:46.882Z,18.87
2018-09-12T03:15:18.007Z,18.88
2018-09-12T03:15:49.142Z,18.91
2018-09-12T03:16:20.264Z,18.88
2018-09-12T03:16:51.449Z,18.88
2018-09-12T03:17:22.640Z,18.87
2018-09-12T03:17:53.769Z,18.85
2018-09-12T03:18:24.885Z,18.86
2018-09-12T03:18:56.047Z,18.88
2018-09-12T03:19:27.169Z,18.88
2018-09-12T03:19:58.294Z,18.89
2018-09-12T03:20:29.485Z,18.88
2018-09-12T03:21:00.758Z,18.86
2018-09-12T03:21:31.918Z,18.81
2018-09-12T03:22:03.086Z,18.78
2018-09-12T03:22:34.223Z,18.77
2018-09-12T03:23:05.360Z,18.73
2018-09-12T03:23:36.551Z,18.70
2018-09-12T03:24:07.672Z,18.68
2018-09-12T03:24:38.834Z,18.67
2018-09-12T03:25:10.024Z,18.67
2018-09-12T03:25:41.208Z,18.53
2018-09-12T03:26:12.349Z,18.69
2018-09-12T03:26:43.458Z,18.72
2018-09-12T03:27:14.709Z,18.73
2018-09-12T03:27:45.844Z,18.72
2018-09-12T03:28:16.965Z,18.69
2018-09-12T03:28:48.120Z,18.66
2018-09-12T03:29:19.296Z,18.64
2018-09-12T03:29:50.438Z,18.64
2018-09-12T03:30:21.547Z,18.65
2018-09-12T03:30:52.680Z,18.63
2018-09-12T03:31:23.823Z,18.62
2018-09-12T03:31:54.934Z,18.66
2018-09-12T03:32:26.114Z,18.67
2018-09-12T03:32:57.239Z,18.68
2018-09-12T03:33:28.407Z,18.66
2018-09-12T03:33:59.556Z,18.65
2018-09-12T03:34:30.728Z,18.62
2018-09-12T03:35:01.906Z,18.62
2018-09-12T03:35:33.076Z,18.63
2018-09-12T03:36:04.196Z,18.61
2018-09-12T03:36:35.342Z,18.59
2018-09-12T03:37:06.475Z,18.55
2018-09-12T03:37:37.630Z,18.51
2018-09-12T03:38:08.758Z,18.47
2018-09-12T03:38:39.878Z,18.45
2018-09-12T03:39:11.032Z,18.43
2018-09-12T03:39:42.170Z,18.41
2018-09-12T03:40:13.313Z,18.40
2018-09-12T03:40:44.486Z,18.37
2018-09-12T03:41:15.598Z,18.33
2018-09-12T03:41:46.698Z,18.28
2018-09-12T03:42:17.879Z,18.26
2018-09-12T03:42:52.688Z,18.22
2018-09-12T03:43:23.813Z,18.19
2018-09-12T03:43:54.920Z,18.17
2018-09-12T03:44:26.065Z,18.13
2018-09-12T03:44:57.191Z,18.08
2018-09-12T03:45:28.364Z,18.06
2018-09-12T03:45:59.506Z,18.05
2018-09-12T03:46:30.732Z,18.02
2018-09-12T03:47:01.881Z,17.99
2018-09-12T03:47:33.071Z,17.99
2018-09-12T03:48:04.261Z,17.98
2018-09-12T03:48:35.383Z,17.97
2018-09-12T03:49:06.512Z,17.95
2018-09-12T03:49:37.634Z,17.96
2018-09-12T03:50:08.775Z,17.96
2018-09-12T03:50:39.902Z,17.97
2018-09-12T03:51:11.056Z,17.99
2018-09-12T03:51:42.176Z,17.96
2018-09-12T03:52:13.333Z,17.97
2018-09-12T03:52:44.495Z,17.95
2018-09-12T03:53:15.676Z,17.94
2018-09-12T03:53:46.828Z,17.91
2018-09-12T03:54:18.005Z,17.89
2018-09-12T03:54:49.115Z,17.87
2018-09-12T03:55:20.337Z,17.84
2018-09-12T03:55:51.477Z,17.82
2018-09-12T03:56:22.611Z,17.80
2018-09-12T03:56:53.723Z,17.81
2018-09-12T03:57:24.881Z,17.82
2018-09-12T03:57:55.981Z,17.81
2018-09-12T03:58:27.090Z,17.80
2018-09-12T03:58:58.207Z,17.78
2018-09-12T03:59:29.319Z,17.76
2018-09-12T04:00:00.431Z,17.72
2018-09-12T04:00:31.602Z,17.71
2018-09-12T04:01:02.772Z,17.69
2018-09-12T04:01:33.902Z,17.69
2018-09-12T04:02:05.062Z,17.70
2018-09-12T04:02:36.312Z,17.55
2018-09-12T04:03:07.479Z,17.73
2018-09-12T04:03:38.595Z,17.74
2018-09-12T04:04:09.770Z,17.74
2018-09-12T04:04:40.882Z,17.75
2018-09-12T04:05:12.031Z,17.77
2018-09-12T04:05:43.170Z,17.79
2018-09-12T04:06:14.285Z,17.80
2018-09-12T04:06:45.400Z,17.81
2018-09-12T04:07:16.585Z,17.82
2018-09-12T04:07:47.752Z,17.82
2018-09-12T04:08:18.892Z,17.86
2018-09-12T04:08:50.000Z,17.87
2018-09-12T04:09:21.104Z,17.87
2018-09-12T04:09:52.329Z,17.87
2018-09-12T04:10:23.561Z,17.86
2018-09-12T04:10:54.707Z,17.87
2018-09-12T04:11:25.885Z,17.83
2018-09-12T04:11:57.027Z,17.83
2018-09-12T04:12:28.140Z,17.83
2018-09-12T04:12:59.305Z,17.81
2018-09-12T04:13:30.434Z,17.80
2018-09-12T04:14:01.547Z,17.80
2018-09-12T04:14:32.668Z,17.80
2018-09-12T04:15:03.787Z,17.77
2018-09-12T04:15:34.955Z,17.69
2018-09-12T04:16:06.072Z,17.60
2018-09-12T04:16:37.240Z,17.58
2018-09-12T04:17:08.382Z,17.62
2018-09-12T04:17:39.488Z,17.63
2018-09-12T04:18:10.607Z,17.63
2018-09-12T04:18:41.724Z,17.61
2018-09-12T04:19:12.900Z,17.57
2018-09-12T04:19:44.010Z,17.58
2018-09-12T04:20:15.163Z,17.57
2018-09-12T04:20:46.352Z,17.54
2018-09-12T04:21:17.528Z,17.47
2018-09-12T04:21:48.640Z,17.48
2018-09-12T04:22:19.752Z,17.48
2018-09-12T04:22:50.855Z,17.51
2018-09-12T04:23:21.977Z,17.49
2018-09-12T04:23:53.083Z,17.47
2018-09-12T04:24:24.295Z,17.47
2018-09-12T04:24:55.404Z,17.48
2018-09-12T04:25:26.577Z,17.47
2018-09-12T04:25:57.765Z,17.46
2018-09-12T04:26:28.880Z,17.43
2018-09-12T04:27:00.002Z,17.35
2018-09-12T04:27:31.120Z,17.30
2018-09-12T04:28:02.269Z,17.32
2018-09-12T04:28:33.426Z,17.22
2018-09-12T04:29:04.569Z,17.19
2018-09-12T04:29:35.724Z,17.26
2018-09-12T04:30:06.914Z,17.25
2018-09-12T04:30:38.035Z,17.28
2018-09-12T04:31:09.150Z,17.28
2018-09-12T04:31:40.364Z,17.28
2018-09-12T04:32:11.519Z,17.24
2018-09-12T04:32:42.690Z,17.26
2018-09-12T04:33:13.799Z,17.22
2018-09-12T04:33:44.982Z,17.24
2018-09-12T04:34:16.097Z,17.18
2018-09-12T04:34:47.249Z,17.20
2018-09-12T04:35:18.357Z,17.20
2018-09-12T04:35:49.464Z,17.23
2018-09-12T04:36:20.604Z,17.33
2018-09-12T04:36:51.765Z,17.45
2018-09-12T04:37:22.880Z,17.61
2018-09-12T04:37:53.996Z,17.83
2018-09-12T04:38:25.123Z,18.04
2018-09-12T04:38:56.223Z,18.20
2018-09-12T04:39:27.356Z,18.42
2018-09-12T04:39:58.502Z,18.54
2018-09-12T04:40:29.598Z,18.70
2018-09-12T04:41:00.713Z,18.89
2018-09-12T04:41:31.829Z,19.08
2018-09-12T04:42:02.985Z,19.20
2018-09-12T04:42:34.163Z,19.35
2018-09-12T04:43:05.268Z,19.47
2018-09-12T04:43:36.388Z,19.59
2018-09-12T04:44:07.548Z,19.70
2018-09-12T04:44:38.663Z,19.82
2018-09-12T04:45:09.778Z,19.81
2018-09-12T04:45:40.952Z,19.89
2018-09-12T04:46:12.186Z,19.90
2018-09-12T04:46:43.389Z,19.87
2018-09-12T04:47:14.532Z,19.97
2018-09-12T04:47:45.663Z,19.82
2018-09-12T04:48:16.890Z,19.94
2018-09-12T04:48:48.008Z,20.00
2018-09-12T04:49:19.123Z,20.11
2018-09-12T04:49:50.255Z,20.19
2018-09-12T04:50:21.440Z,20.30
2018-09-12T04:50:52.559Z,20.32
2018-09-12T04:51:23.668Z,20.44
2018-09-12T04:51:54.874Z,20.54
2018-09-12T04:52:26.106Z,20.65
2018-09-12T04:52:57.253Z,20.80
2018-09-12T04:53:28.404Z,20.86
2018-09-12T04:53:59.604Z,20.96
2018-09-12T04:54:30.744Z,21.00
2018-09-12T04:55:01.892Z,21.05
2018-09-12T04:55:33.089Z,21.05
2018-09-12T04:56:04.321Z,21.10
2018-09-12T04:56:35.471Z,21.20
2018-09-12T04:57:06.636Z,21.29
2018-09-12T04:57:37.769Z,21.31
2018-09-12T04:58:08.903Z,21.32
2018-09-12T04:58:40.007Z,21.41
2018-09-12T04:59:11.159Z,21.45
2018-09-12T04:59:42.361Z,21.50
2018-09-12T05:00:13.584Z,21.55
2018-09-12T05:00:44.755Z,21.28
2018-09-12T05:01:15.885Z,21.29
2018-09-12T05:01:46.997Z,21.38
2018-09-12T05:02:18.171Z,21.40
2018-09-12T05:02:49.301Z,21.50
2018-09-12T05:03:20.476Z,21.60
2018-09-12T05:03:51.610Z,21.65
2018-09-12T05:04:22.724Z,21.71
2018-09-12T05:04:53.837Z,21.78
2018-09-12T05:05:24.988Z,21.85
2018-09-12T05:05:56.103Z,21.95
2018-09-12T05:06:27.286Z,22.00
2018-09-12T05:06:58.462Z,22.04
2018-09-12T05:07:29.636Z,22.10
2018-09-12T05:08:00.876Z,22.08
2018-09-12T05:08:32.062Z,22.18
2018-09-12T05:09:03.255Z,22.23
2018-09-12T05:09:34.481Z,22.17
2018-09-12T05:10:05.682Z,22.21
2018-09-12T05:10:36.882Z,22.24
2018-09-12T05:11:08.022Z,22.24
2018-09-12T05:11:39.258Z,22.23
2018-09-12T05:12:10.371Z,22.32
2018-09-12T05:12:41.538Z,22.35
2018-09-12T05:13:12.723Z,22.35
2018-09-12T05:13:43.996Z,22.27
2018-09-12T05:14:15.135Z,22.33
2018-09-12T05:14:46.387Z,22.27
2018-09-12T05:15:17.556Z,22.19
2018-09-12T05:15:48.760Z,22.19
2018-09-12T05:16:19.971Z,22.20
2018-09-12T05:16:51.210Z,22.19
2018-09-12T05:17:22.346Z,21.64
2018-09-12T05:17:53.467Z,22.15
2018-09-12T05:18:24.601Z,22.13
2018-09-12T05:18:55.724Z,22.08
2018-09-12T05:19:26.922Z,22.08
2018-09-12T05:19:58.106Z,22.05
2018-09-12T05:20:29.296Z,22.05
2018-09-12T05:21:00.402Z,21.96
2018-09-12T05:21:31.527Z,21.88
2018-09-12T05:22:02.693Z,21.73
2018-09-12T05:22:33.800Z,21.67
2018-09-12T05:23:04.911Z,21.50
2018-09-12T05:23:36.025Z,21.43
2018-09-12T05:24:07.212Z,21.30
2018-09-12T05:24:38.366Z,21.17
2018-09-12T05:25:09.539Z,21.03
2018-09-12T05:25:40.663Z,20.98
2018-09-12T05:26:11.823Z,20.88
2018-09-12T05:26:42.989Z,20.71
2018-09-12T05:27:14.127Z,20.67
2018-09-12T05:27:45.294Z,20.52
2018-09-12T05:28:16.444Z,20.51
2018-09-12T05:28:47.579Z,20.49
2018-09-12T05:29:18.698Z,20.50
2018-09-12T05:29:49.821Z,20.48
2018-09-12T05:30:20.977Z,20.49
2018-09-12T05:30:52.108Z,20.52
2018-09-12T05:31:23.240Z,20.53
2018-09-12T05:31:54.354Z,20.55
2018-09-12T05:32:25.464Z,20.55
2018-09-12T05:32:56.667Z,20.55
2018-09-12T05:33:27.819Z,20.56
2018-09-12T05:33:58.971Z,20.57
2018-09-12T05:34:30.092Z,20.55
2018-09-12T05:35:01.282Z,20.56
2018-09-12T05:35:32.455Z,20.56
2018-09-12T05:36:03.686Z,20.61
2018-09-12T05:36:34.799Z,20.62
2018-09-12T05:37:05.908Z,20.67
2018-09-12T05:37:37.049Z,20.71
2018-09-12T05:38:08.199Z,20.79
2018-09-12T05:38:39.348Z,20.86
2018-09-12T05:39:10.484Z,20.70
2018-09-12T05:39:41.614Z,20.94
2018-09-12T05:40:12.747Z,21.02
2018-09-12T05:40:43.945Z,21.09
2018-09-12T05:41:15.147Z,21.07
2018-09-12T05:41:46.279Z,21.06
2018-09-12T05:42:17.393Z,20.91
2018-09-12T05:42:48.522Z,21.13
2018-09-12T05:43:19.641Z,21.19
2018-09-12T05:43:50.777Z,21.23
2018-09-12T05:44:22.721Z,21.31
2018-09-12T05:44:53.846Z,21.34
2018-09-12T05:45:25.013Z,21.45
2018-09-12T05:45:56.284Z,21.54
2018-09-12T05:46:27.419Z,21.55
2018-09-12T05:46:58.535Z,21.61
2018-09-12T05:47:29.667Z,21.76
2018-09-12T05:48:00.820Z,21.87
2018-09-12T05:48:32.077Z,22.01
2018-09-12T05:49:03.223Z,22.07
2018-09-12T05:49:34.333Z,22.08
2018-09-12T05:50:05.491Z,22.05
2018-09-12T05:50:36.598Z,22.13
2018-09-12T05:51:07.942Z,22.24
2018-09-12T05:51:39.125Z,22.31
2018-09-12T05:52:10.369Z,22.39
2018-09-12T05:52:41.605Z,22.47
2018-09-12T05:53:12.715Z,22.43
2018-09-12T05:53:43.870Z,22.43
2018-09-12T05:54:15.043Z,22.41
2018-09-12T05:54:46.205Z,22.35
2018-09-12T05:55:17.389Z,22.40
2018-09-12T05:55:48.672Z,22.43
2018-09-12T05:56:19.852Z,22.39
2018-09-12T05:56:50.961Z,22.44
2018-09-12T05:57:22.108Z,22.51
2018-09-12T05:57:53.328Z,22.58
2018-09-12T05:58:24.511Z,22.61
2018-09-12T05:58:55.655Z,22.59
2018-09-12T05:59:26.794Z,22.51
2018-09-12T05:59:57.969Z,22.52
2018-09-12T06:00:29.136Z,22.58
2018-09-12T06:01:00.428Z,22.69
2018-09-12T06:01:31.613Z,22.79
2018-09-12T06:02:02.781Z,22.82
2018-09-12T06:02:34.018Z,22.91
2018-09-12T06:03:05.220Z,22.95
2018-09-12T06:03:36.409Z,22.95
2018-09-12T06:04:07.603Z,22.91
2018-09-12T06:04:38.841Z,22.93
2018-09-12T06:05:10.030Z,22.90
2018-09-12T06:05:41.253Z,22.91
2018-09-12T06:06:12.395Z,22.88
2018-09-12T06:06:43.669Z,22.86
2018-09-12T06:07:14.841Z,22.88
2018-09-12T06:07:45.877Z,22.92
2018-09-12T06:08:17.058Z,22.94
2018-09-12T06:08:48.185Z,22.98
2018-09-12T06:09:19.353Z,22.97
2018-09-12T06:09:50.479Z,22.92
2018-09-12T06:10:21.674Z,22.87
2018-09-12T06:10:52.831Z,22.79
2018-09-12T06:11:23.958Z,22.80
2018-09-12T06:11:55.084Z,22.78
2018-09-12T06:12:26.274Z,22.80
2018-09-12T06:12:57.370Z,22.68
2018-09-12T06:13:28.564Z,22.73
2018-09-12T06:13:59.695Z,22.74
2018-09-12T06:14:30.827Z,22.83
2018-09-12T06:15:02.028Z,22.82
2018-09-12T06:15:33.185Z,22.79
2018-09-12T06:16:04.347Z,22.79
2018-09-12T06:16:35.535Z,22.76
2018-09-12T06:17:06.648Z,22.74
2018-09-12T06:17:37.771Z,22.72
2018-09-12T06:18:08.907Z,22.72
2018-09-12T06:18:40.079Z,22.70
2018-09-12T06:19:11.204Z,22.64
2018-09-12T06:20:13.284Z,22.62
2018-09-12T06:20:44.443Z,22.70
2018-09-12T06:21:15.556Z,22.80
2018-09-12T06:21:46.958Z,22.88
2018-09-12T06:22:18.129Z,22.96
2018-09-12T06:22:49.246Z,23.01
2018-09-12T06:23:20.363Z,23.06
2018-09-12T06:23:51.532Z,23.00
2018-09-12T06:24:22.644Z,22.95
2018-09-12T06:24:53.824Z,22.94
2018-09-12T06:25:24.969Z,22.92
2018-09-12T06:25:56.140Z,22.89
2018-09-12T06:26:27.264Z,22.86
2018-09-12T06:26:58.380Z,22.86
2018-09-12T06:27:29.506Z,22.69
2018-09-12T06:28:00.720Z,22.90
2018-09-12T06:28:31.859Z,22.98
2018-09-12T06:29:03.008Z,22.99
2018-09-12T06:29:34.216Z,22.99
2018-09-12T06:30:05.392Z,23.02
2018-09-12T06:30:36.566Z,23.09
2018-09-12T06:31:07.672Z,23.17
2018-09-12T06:31:38.802Z,23.26
2018-09-12T06:32:10.058Z,23.30
2018-09-12T06:32:41.224Z,23.33
2018-09-12T06:33:12.360Z,23.33
2018-09-12T06:33:43.483Z,23.26
2018-09-12T06:34:14.645Z,23.22
2018-09-12T06:34:45.844Z,23.26
2018-09-12T06:35:17.068Z,23.30
2018-09-12T06:35:48.279Z,23.34
2018-09-12T06:36:19.480Z,23.38
2018-09-12T06:36:50.620Z,23.40
2018-09-12T06:37:21.740Z,23.39
2018-09-12T06:37:52.896Z,23.37
2018-09-12T06:38:24.155Z,23.32
2018-09-12T06:38:55.200Z,23.24
2018-09-12T06:39:26.355Z,23.22
2018-09-12T06:39:57.493Z,23.18
2018-09-12T06:40:28.629Z,23.19
2018-09-12T06:41:01.886Z,23.23
2018-09-12T06:41:33.083Z,23.22